createdAt,value
2022-12-23T00:00:16.488Z,1
2022-12-23T00:05:16.476Z,2
2022-12-23T00:10:21.825Z,1
2022-12-23T00:15:16.992Z,2
2022-12-23T00:20:16.580Z,1
2022-12-23T00:25:17.025Z,2
2022-12-23T00:30:17.040Z,1
2022-12-23T00:35:17.043Z,2
2022-12-23T00:40:17.062Z,1
2022-12-23T00:45:16.632Z,1
2022-12-23T00:50:22.642Z,2
2022-12-23T00:55:17.077Z,3
2022-12-23T01:00:16.608Z,2
2022-12-23T01:05:16.579Z,2
2022-12-23T01:10:21.911Z,1
2022-12-23T01:15:16.597Z,2
2022-12-23T01:20:16.647Z,2
2022-12-23T01:25:17.279Z,2
2022-12-23T01:30:17.139Z,2
2022-12-23T01:35:16.656Z,2
2022-12-23T01:40:16.668Z,2
2022-12-23T01:45:16.664Z,2
2022-12-23T01:50:17.181Z,2
2022-12-23T01:55:16.674Z,2
2022-12-23T02:00:16.707Z,2
2022-12-23T02:05:16.685Z,2
2022-12-23T02:10:17.211Z,2
2022-12-23T02:15:17.241Z,2
2022-12-23T02:20:17.259Z,2
2022-12-23T02:25:16.725Z,2
2022-12-23T02:30:16.738Z,2
2022-12-23T02:35:16.746Z,1
2022-12-23T02:40:16.902Z,2
2022-12-23T02:45:16.772Z,2
2022-12-23T02:50:17.277Z,2
2022-12-23T02:55:16.802Z,2
2022-12-23T03:00:16.813Z,2
2022-12-23T03:05:16.796Z,2
2022-12-23T03:10:17.453Z,2
2022-12-23T03:15:17.330Z,2
2022-12-23T03:20:16.844Z,2
2022-12-23T03:25:16.835Z,2
2022-12-23T03:30:16.875Z,2
2022-12-23T03:35:17.360Z,1
2022-12-23T03:40:16.886Z,2
2022-12-23T03:45:37.911Z,2
2022-12-23T03:50:16.872Z,2
2022-12-23T03:55:17.425Z,2
2022-12-23T04:00:17.440Z,2
2022-12-23T04:05:16.899Z,3
2022-12-23T04:10:16.923Z,2
2022-12-23T04:15:16.920Z,3
2022-12-23T04:20:16.953Z,2
2022-12-23T04:25:16.938Z,2
2022-12-23T04:30:16.941Z,2
2022-12-23T04:35:16.948Z,2
2022-12-23T04:40:16.991Z,2
2022-12-23T04:45:17.485Z,3
2022-12-23T04:50:16.995Z,2
2022-12-23T04:55:16.989Z,2
2022-12-23T05:00:17.042Z,2
2022-12-23T05:05:17.026Z,2
2022-12-23T05:10:17.024Z,2
2022-12-23T05:15:17.028Z,2
2022-12-23T05:20:17.088Z,2
2022-12-23T05:25:17.559Z,3
2022-12-23T05:30:17.049Z,3
2022-12-23T05:35:32.653Z,2
2022-12-23T05:40:19.990Z,2
2022-12-23T05:45:17.588Z,2
2022-12-23T05:50:17.106Z,3
2022-12-23T05:55:17.221Z,2
2022-12-23T06:00:17.163Z,3
2022-12-23T06:05:17.660Z,2
2022-12-23T06:10:17.626Z,3
2022-12-23T06:15:17.183Z,2
2022-12-23T06:20:20.614Z,2
2022-12-23T06:25:17.279Z,2
2022-12-23T06:30:17.681Z,2
2022-12-23T06:35:17.235Z,2
2022-12-23T06:40:17.182Z,2
2022-12-23T06:45:17.201Z,2
2022-12-23T06:50:17.749Z,2
2022-12-23T06:55:17.248Z,2
2022-12-23T07:00:17.725Z,2
2022-12-23T07:05:17.231Z,2
2022-12-23T07:10:17.233Z,2
2022-12-23T07:15:17.893Z,2
2022-12-23T07:20:17.407Z,2
2022-12-23T07:25:17.784Z,2
2022-12-23T07:30:17.774Z,2
2022-12-23T07:35:17.809Z,3
2022-12-23T07:40:17.288Z,3
2022-12-23T07:45:17.309Z,3
2022-12-23T07:50:17.818Z,3
2022-12-23T07:55:17.345Z,3
2022-12-23T08:00:17.843Z,5
2022-12-23T08:05:18.013Z,3
2022-12-23T08:10:17.351Z,5
2022-12-23T08:15:17.396Z,3
2022-12-23T08:20:17.872Z,4
2022-12-23T08:25:17.879Z,3
2022-12-23T08:30:17.396Z,3
2022-12-23T08:35:17.431Z,3
2022-12-23T08:40:17.898Z,3
2022-12-23T08:45:17.919Z,3
2022-12-23T08:50:17.409Z,3
2022-12-23T08:55:17.449Z,3
2022-12-23T09:00:17.951Z,4
2022-12-23T09:05:56.598Z,4
2022-12-23T09:10:17.459Z,3
2022-12-23T09:15:17.496Z,3
2022-12-23T09:20:17.474Z,3
2022-12-23T09:25:22.818Z,3
2022-12-23T09:30:17.488Z,2
2022-12-23T09:35:17.519Z,2
2022-12-23T09:40:17.509Z,3
2022-12-23T09:45:57.253Z,3
2022-12-23T09:50:17.529Z,3
2022-12-23T09:55:17.576Z,3
2022-12-23T10:00:17.552Z,3
2022-12-23T10:10:18.081Z,3
2022-12-23T10:15:17.606Z,3
2022-12-23T10:20:17.580Z,3
2022-12-23T10:25:22.327Z,3
2022-12-23T10:30:51.162Z,3
2022-12-23T10:35:18.142Z,4
2022-12-23T10:40:17.754Z,6
2022-12-23T10:45:18.273Z,3
2022-12-23T10:50:17.678Z,4
2022-12-23T10:55:17.680Z,18
2022-12-23T11:00:17.658Z,8
2022-12-23T11:05:22.995Z,5
2022-12-23T11:10:17.680Z,7
2022-12-23T11:15:17.714Z,9
2022-12-23T11:20:17.684Z,3
2022-12-23T11:25:18.209Z,3
2022-12-23T11:30:17.809Z,4
2022-12-23T11:35:18.288Z,3
2022-12-23T11:40:17.720Z,3
2022-12-23T11:45:18.243Z,4
2022-12-23T11:50:17.741Z,4
2022-12-23T11:55:17.813Z,4
2022-12-23T12:00:17.803Z,4
2022-12-23T12:05:18.273Z,4
2022-12-23T12:10:17.783Z,4
2022-12-23T12:15:18.346Z,4
2022-12-23T12:20:17.797Z,4
2022-12-23T12:25:18.317Z,5
2022-12-23T12:30:17.828Z,3
2022-12-23T12:35:17.855Z,4
2022-12-23T12:40:17.831Z,5
2022-12-23T12:45:17.869Z,4
2022-12-23T12:50:17.854Z,5
2022-12-23T12:55:17.890Z,5
2022-12-23T13:00:18.394Z,5
2022-12-23T13:05:18.027Z,5
2022-12-23T13:10:17.890Z,8
2022-12-23T13:15:17.923Z,5
2022-12-23T13:20:17.906Z,12
2022-12-23T13:25:17.925Z,6
2022-12-23T13:30:18.044Z,7
2022-12-23T13:35:17.958Z,10
2022-12-23T13:40:17.940Z,6
2022-12-23T13:45:17.954Z,5
2022-12-23T13:50:17.963Z,5
2022-12-23T13:55:18.520Z,6
2022-12-23T14:00:18.154Z,4
2022-12-23T14:05:17.980Z,5
2022-12-23T14:10:18.003Z,5
2022-12-23T14:15:18.526Z,4
2022-12-23T14:20:18.521Z,4
2022-12-23T14:25:18.539Z,4
2022-12-23T14:30:18.564Z,5
2022-12-23T14:35:18.064Z,5
2022-12-23T14:40:18.048Z,6
2022-12-23T14:45:18.057Z,6
2022-12-23T14:50:18.099Z,5
2022-12-23T14:55:30.053Z,5
2022-12-23T15:00:18.099Z,5
2022-12-23T15:05:18.615Z,4
2022-12-23T15:10:18.609Z,4
2022-12-23T15:15:18.139Z,5
2022-12-23T15:20:18.126Z,4
2022-12-23T15:25:18.642Z,4
2022-12-23T15:30:18.651Z,4
2022-12-23T15:35:21.091Z,4
2022-12-23T15:40:18.295Z,5
2022-12-23T15:45:18.175Z,4
2022-12-23T15:50:18.177Z,6
2022-12-23T15:55:19.222Z,5
2022-12-23T16:00:18.705Z,6
2022-12-23T16:05:18.709Z,5
2022-12-23T16:10:18.264Z,5
2022-12-23T16:15:18.247Z,5
2022-12-23T16:20:23.591Z,5
2022-12-23T16:25:18.246Z,5
2022-12-23T16:30:18.258Z,5
2022-12-23T16:35:24.211Z,5
2022-12-23T16:40:36.254Z,6
2022-12-23T16:45:18.283Z,5
2022-12-23T16:50:18.283Z,5
2022-12-23T16:55:23.666Z,5
2022-12-23T17:00:24.235Z,6
2022-12-23T17:05:18.809Z,5
2022-12-23T17:10:18.842Z,6
2022-12-23T17:15:18.382Z,5
2022-12-23T17:20:18.346Z,5
2022-12-23T17:25:21.346Z,6
2022-12-23T17:30:18.363Z,6
2022-12-23T17:35:18.912Z,5
2022-12-23T17:40:24.335Z,5
2022-12-23T17:45:18.382Z,5
2022-12-23T17:50:18.393Z,5
2022-12-23T17:55:18.430Z,5
2022-12-23T18:00:25.275Z,4
2022-12-23T18:05:18.549Z,5
2022-12-23T18:10:18.938Z,5
2022-12-23T18:15:18.470Z,5
2022-12-23T18:20:18.449Z,6
2022-12-23T18:25:18.463Z,4
2022-12-23T18:30:18.483Z,5
2022-12-23T18:35:18.509Z,4
2022-12-23T18:40:19.001Z,3
2022-12-23T18:45:18.503Z,3
2022-12-23T18:50:18.505Z,3
2022-12-23T18:55:19.038Z,3
2022-12-23T19:00:18.579Z,3
2022-12-23T19:05:18.532Z,3
2022-12-23T19:10:19.037Z,3
2022-12-23T19:15:18.594Z,4
2022-12-23T19:20:19.067Z,4
2022-12-23T19:25:18.572Z,3
2022-12-23T19:30:18.586Z,4
2022-12-23T19:35:19.123Z,3
2022-12-23T19:40:19.100Z,3
2022-12-23T19:45:18.673Z,3
2022-12-23T19:50:18.617Z,4
2022-12-23T19:55:18.651Z,3
2022-12-23T20:00:18.641Z,3
2022-12-23T20:05:18.637Z,2
2022-12-23T20:10:18.655Z,3
2022-12-23T20:15:19.185Z,2
2022-12-23T20:20:18.663Z,3
2022-12-23T20:25:18.676Z,3
2022-12-23T20:30:18.687Z,3
2022-12-23T20:35:19.391Z,3
2022-12-23T20:40:19.211Z,2
2022-12-23T20:45:18.712Z,3
2022-12-23T20:50:18.716Z,3
2022-12-23T20:55:18.767Z,2
2022-12-23T21:00:18.740Z,2
2022-12-23T21:05:19.255Z,2
2022-12-23T21:10:19.265Z,3
2022-12-23T21:15:18.794Z,2
2022-12-23T21:20:18.767Z,2
2022-12-23T21:25:19.315Z,1
2022-12-23T21:30:18.949Z,2
2022-12-23T21:35:18.827Z,2
2022-12-23T21:40:19.305Z,2
2022-12-23T21:45:18.818Z,2
2022-12-23T21:50:18.833Z,3
2022-12-23T21:55:19.369Z,4
2022-12-23T22:00:19.370Z,3
2022-12-23T22:05:18.863Z,3
2022-12-23T22:10:18.871Z,3
2022-12-23T22:15:18.894Z,3
2022-12-23T22:20:18.894Z,4
2022-12-23T22:25:18.906Z,4
2022-12-23T22:30:18.903Z,4
2022-12-23T22:35:18.943Z,4
2022-12-23T22:40:19.427Z,3
2022-12-23T22:45:18.926Z,3
2022-12-23T22:50:18.944Z,4
2022-12-23T22:55:18.977Z,3
2022-12-23T23:00:18.980Z,3
2022-12-23T23:05:19.032Z,3
2022-12-23T23:10:19.518Z,3
2022-12-23T23:15:19.006Z,3
2022-12-23T23:20:19.510Z,4
2022-12-23T23:25:19.513Z,3
2022-12-23T23:30:19.509Z,3
2022-12-23T23:35:35.228Z,3
2022-12-23T23:40:19.534Z,2
2022-12-23T23:45:19.540Z,2
2022-12-23T23:50:19.049Z,2
2022-12-23T23:55:19.620Z,2
